createdAt,value
2022-09-24T00:00:59.030Z,10.30
2022-09-24T00:03:26.322Z,10.40
2022-09-24T00:05:53.165Z,10.40
2022-09-24T00:08:20.501Z,10.40
2022-09-24T00:10:48.933Z,10.40
2022-09-24T00:13:17.594Z,10.40
2022-09-24T00:15:46.161Z,10.40
2022-09-24T00:18:13.683Z,10.40
2022-09-24T00:20:40.481Z,10.40
2022-09-24T00:23:08.366Z,10.40
2022-09-24T00:25:58.711Z,10.40
2022-09-24T00:28:25.689Z,10.40
2022-09-24T00:30:52.499Z,10.40
2022-09-24T00:33:19.236Z,10.50
2022-09-24T00:35:46.006Z,10.50
2022-09-24T00:38:12.759Z,10.50
2022-09-24T00:40:39.817Z,10.50
2022-09-24T00:43:42.491Z,10.50
2022-09-24T00:46:27.976Z,10.50
2022-09-24T00:49:01.170Z,10.50
2022-09-24T00:51:28.912Z,10.50
2022-09-24T00:54:06.620Z,10.50
2022-09-24T00:56:36.637Z,10.50
2022-09-24T00:59:04.524Z,10.50
2022-09-24T01:01:31.303Z,10.50
2022-09-24T01:03:58.840Z,10.50
2022-09-24T01:06:26.039Z,10.50
2022-09-24T01:08:54.766Z,10.50
2022-09-24T01:11:29.424Z,10.50
2022-09-24T01:14:03.729Z,10.50
2022-09-24T01:17:08.783Z,10.50
2022-09-24T01:19:41.258Z,10.60
2022-09-24T01:22:28.254Z,10.50
2022-09-24T01:25:24.219Z,10.50
2022-09-24T01:28:06.128Z,10.60
2022-09-24T01:30:35.056Z,10.50
2022-09-24T01:33:03.345Z,10.50
2022-09-24T01:35:38.138Z,10.60
2022-09-24T01:38:09.431Z,10.60
2022-09-24T01:40:37.198Z,10.60
2022-09-24T01:43:05.515Z,10.60
2022-09-24T01:45:33.251Z,10.60
2022-09-24T01:48:03.163Z,10.60
2022-09-24T01:50:33.280Z,10.60
2022-09-24T01:53:17.448Z,10.60
2022-09-24T01:55:48.951Z,10.60
2022-09-24T01:58:18.976Z,10.60
2022-09-24T02:00:47.822Z,10.60
2022-09-24T02:03:22.436Z,10.60
2022-09-24T02:06:08.652Z,10.60
2022-09-24T02:08:44.186Z,10.60
2022-09-24T02:11:14.417Z,10.60
2022-09-24T02:13:43.546Z,10.70
2022-09-24T02:16:14.742Z,10.60
2022-09-24T02:18:44.958Z,10.60
2022-09-24T02:21:13.835Z,10.60
2022-09-24T02:23:43.981Z,10.60
2022-09-24T02:26:11.300Z,10.60
2022-09-24T02:28:38.036Z,10.60
2022-09-24T02:31:07.949Z,10.60
2022-09-24T02:33:54.504Z,10.60
2022-09-24T02:36:25.052Z,10.60
2022-09-24T02:38:52.558Z,10.60
2022-09-24T02:41:19.821Z,10.60
2022-09-24T02:43:47.492Z,10.60
2022-09-24T02:46:14.303Z,10.50
2022-09-24T02:48:41.602Z,10.50
2022-09-24T02:51:08.428Z,10.50
2022-09-24T02:53:35.218Z,10.50
2022-09-24T02:56:02.177Z,10.50
2022-09-24T02:58:29.592Z,10.50
2022-09-24T03:00:57.180Z,10.50
2022-09-24T03:03:24.219Z,10.50
2022-09-24T03:05:54.787Z,10.50
2022-09-24T03:08:22.244Z,10.60
2022-09-24T03:10:51.130Z,10.50
2022-09-24T03:13:18.422Z,10.60
2022-09-24T03:15:45.630Z,10.60
2022-09-24T03:18:12.549Z,10.60
2022-09-24T03:20:39.851Z,10.50
2022-09-24T03:23:06.782Z,10.50
2022-09-24T03:25:33.492Z,10.50
2022-09-24T03:28:00.284Z,10.50
2022-09-24T03:30:45.852Z,10.50
2022-09-24T03:33:12.711Z,10.50
2022-09-24T03:35:39.505Z,10.50
2022-09-24T03:38:06.226Z,10.40
2022-09-24T03:40:33.108Z,10.50
2022-09-24T03:42:59.853Z,10.40
2022-09-24T03:45:26.560Z,10.50
2022-09-24T03:47:53.285Z,10.50
2022-09-24T03:50:20.057Z,10.50
2022-09-24T03:52:46.806Z,10.50
2022-09-24T03:55:13.540Z,10.40
2022-09-24T03:57:40.305Z,10.50
2022-09-24T04:00:07.310Z,10.50
2022-09-24T04:02:34.733Z,10.40
2022-09-24T04:05:01.778Z,10.40
2022-09-24T04:07:28.561Z,10.40
2022-09-24T04:09:55.323Z,10.40
2022-09-24T04:12:23.029Z,10.40
2022-09-24T04:14:49.779Z,10.40
2022-09-24T04:17:17.439Z,10.30
2022-09-24T04:19:44.206Z,10.30
2022-09-24T04:22:11.008Z,10.30
2022-09-24T04:24:37.797Z,10.30
2022-09-24T04:27:04.623Z,10.30
2022-09-24T04:29:31.365Z,10.30
2022-09-24T04:31:58.129Z,10.30
2022-09-24T04:34:24.906Z,10.30
2022-09-24T04:36:52.144Z,10.20
2022-09-24T04:39:18.883Z,10.20
2022-09-24T04:41:47.959Z,10.20
2022-09-24T04:44:15.363Z,10.20
2022-09-24T04:46:43.003Z,10.20
2022-09-24T04:49:10.026Z,10.20
2022-09-24T04:51:36.880Z,10.20
2022-09-24T04:54:03.712Z,10.20
2022-09-24T04:56:30.930Z,10.20
2022-09-24T04:58:58.596Z,10.20
2022-09-24T05:01:25.978Z,10.20
2022-09-24T05:03:53.695Z,10.30
2022-09-24T05:06:20.406Z,10.30
2022-09-24T05:08:47.194Z,10.30
2022-09-24T05:11:13.945Z,10.30
2022-09-24T05:13:40.794Z,10.40
2022-09-24T05:16:07.668Z,10.40
2022-09-24T05:18:34.825Z,10.40
2022-09-24T05:21:01.551Z,10.50
2022-09-24T05:23:28.448Z,10.50
2022-09-24T05:26:13.866Z,10.50
2022-09-24T05:28:42.869Z,10.60
2022-09-24T05:31:10.771Z,10.60
2022-09-24T05:33:37.805Z,10.70
2022-09-24T05:36:04.723Z,10.70
2022-09-24T05:38:32.981Z,10.80
2022-09-24T05:41:00.059Z,10.80
2022-09-24T05:43:27.855Z,10.90
2022-09-24T05:45:54.981Z,10.90
2022-09-24T05:48:21.736Z,10.90
2022-09-24T05:50:48.536Z,11.00
2022-09-24T05:53:15.302Z,11.10
2022-09-24T05:55:42.626Z,11.10
2022-09-24T05:58:13.735Z,11.10
2022-09-24T06:00:40.532Z,11.20
2022-09-24T06:03:11.842Z,11.20
2022-09-24T06:05:38.609Z,11.20
2022-09-24T06:08:05.582Z,11.30
2022-09-24T06:10:32.791Z,11.30
2022-09-24T06:12:59.608Z,11.30
2022-09-24T06:15:27.323Z,11.30
2022-09-24T06:17:54.880Z,11.30
2022-09-24T06:20:21.941Z,11.40
2022-09-24T06:22:48.738Z,11.40
2022-09-24T06:25:15.504Z,11.40
2022-09-24T06:27:42.276Z,11.40
2022-09-24T06:30:09.207Z,11.50
2022-09-24T06:32:35.937Z,11.50
2022-09-24T06:35:02.859Z,11.50
2022-09-24T06:37:29.609Z,11.60
2022-09-24T06:39:56.316Z,11.60
2022-09-24T06:42:23.077Z,11.60
2022-09-24T06:44:51.499Z,11.60
2022-09-24T06:47:18.510Z,11.70
2022-09-24T06:49:45.280Z,11.70
2022-09-24T06:52:12.042Z,11.70
2022-09-24T06:54:38.913Z,11.70
2022-09-24T06:57:06.665Z,11.80
2022-09-24T06:59:33.426Z,11.80
2022-09-24T07:02:00.229Z,11.90
2022-09-24T07:04:27.010Z,11.90
2022-09-24T07:07:12.422Z,12.00
2022-09-24T07:09:41.459Z,12.00
2022-09-24T07:12:08.914Z,12.10
2022-09-24T07:14:35.714Z,12.10
2022-09-24T07:17:02.461Z,12.10
2022-09-24T07:19:29.178Z,12.20
2022-09-24T07:21:55.890Z,12.20
2022-09-24T07:24:22.601Z,12.20
2022-09-24T07:26:49.518Z,12.30
2022-09-24T07:29:16.331Z,12.30
2022-09-24T07:31:43.180Z,12.40
2022-09-24T07:34:10.122Z,12.40
2022-09-24T07:36:37.063Z,12.40
2022-09-24T07:39:03.855Z,12.50
2022-09-24T07:41:30.900Z,12.50
2022-09-24T07:43:57.717Z,12.60
2022-09-24T07:46:24.865Z,12.60
2022-09-24T07:48:57.649Z,12.70
2022-09-24T07:51:25.990Z,12.80
2022-09-24T07:53:53.011Z,12.90
2022-09-24T07:56:19.941Z,12.90
2022-09-24T07:58:50.262Z,13.00
2022-09-24T08:01:17.834Z,13.10
2022-09-24T08:03:46.311Z,13.20
2022-09-24T08:06:13.461Z,13.30
2022-09-24T08:08:40.254Z,13.40
2022-09-24T08:11:07.798Z,13.40
2022-09-24T08:13:34.565Z,13.60
2022-09-24T08:16:01.805Z,13.60
2022-09-24T08:18:30.986Z,13.60
2022-09-24T08:20:58.395Z,13.80
2022-09-24T08:23:25.287Z,13.80
2022-09-24T08:25:53.927Z,13.90
2022-09-24T08:28:20.697Z,14.00
2022-09-24T08:30:47.513Z,14.10
2022-09-24T08:33:15.440Z,14.10
2022-09-24T08:35:42.344Z,14.20
2022-09-24T08:38:09.285Z,14.30
2022-09-24T08:40:42.935Z,14.30
2022-09-24T08:43:14.351Z,14.40
2022-09-24T08:46:07.093Z,14.40
2022-09-24T08:48:36.298Z,14.40
2022-09-24T08:51:04.545Z,14.50
2022-09-24T08:53:43.661Z,14.50
2022-09-24T08:56:11.311Z,14.60
2022-09-24T08:58:46.241Z,14.60
2022-09-24T09:01:13.000Z,14.60
2022-09-24T09:03:40.221Z,14.70
2022-09-24T09:06:25.352Z,14.70
2022-09-24T09:09:06.873Z,14.80
2022-09-24T09:11:35.848Z,14.80
2022-09-24T09:14:08.572Z,14.80
2022-09-24T09:16:41.163Z,14.80
2022-09-24T09:19:10.033Z,14.90
2022-09-24T09:21:36.958Z,14.90
2022-09-24T09:24:04.564Z,15.00
2022-09-24T09:26:31.820Z,15.00
2022-09-24T09:29:00.998Z,15.00
2022-09-24T09:31:46.729Z,15.00
2022-09-24T09:34:31.736Z,15.00
2022-09-24T09:37:04.532Z,15.10
2022-09-24T09:39:37.974Z,15.20
2022-09-24T09:42:23.324Z,15.20
2022-09-24T09:44:50.075Z,15.20
2022-09-24T09:47:24.741Z,15.30
2022-09-24T09:49:53.453Z,15.20
2022-09-24T09:52:21.509Z,15.30
2022-09-24T09:54:49.119Z,15.40
2022-09-24T09:57:18.329Z,15.50
2022-09-24T09:59:49.406Z,15.50
2022-09-24T10:02:21.767Z,15.50
2022-09-24T10:04:52.362Z,15.60
2022-09-24T10:07:19.085Z,15.70
2022-09-24T10:09:46.722Z,15.80
2022-09-24T10:12:24.337Z,15.80
2022-09-24T10:14:58.303Z,15.80
2022-09-24T10:17:27.681Z,15.70
2022-09-24T10:19:55.600Z,15.50
2022-09-24T10:22:23.390Z,15.40
2022-09-24T10:24:50.983Z,15.40
2022-09-24T10:27:24.148Z,15.50
2022-09-24T10:30:12.971Z,15.50
2022-09-24T10:32:40.622Z,15.60
2022-09-24T10:35:25.656Z,15.50
2022-09-24T10:38:02.923Z,15.60
2022-09-24T10:40:31.514Z,15.80
2022-09-24T10:42:59.700Z,15.70
2022-09-24T10:45:41.793Z,15.70
2022-09-24T10:48:15.770Z,15.70
2022-09-24T10:50:57.528Z,15.60
2022-09-24T10:53:24.448Z,15.50
2022-09-24T10:56:03.945Z,15.50
2022-09-24T10:58:49.085Z,15.50
2022-09-24T11:01:18.212Z,15.50
2022-09-24T11:03:54.310Z,15.40
2022-09-24T11:06:36.366Z,15.50
2022-09-24T11:09:41.716Z,15.60
2022-09-24T11:12:27.933Z,15.60
2022-09-24T11:14:57.621Z,15.50
2022-09-24T11:17:32.320Z,15.50
2022-09-24T11:20:19.306Z,15.50
2022-09-24T11:23:07.575Z,15.40
2022-09-24T11:25:34.326Z,15.30
2022-09-24T11:28:01.048Z,15.30
2022-09-24T11:30:48.046Z,15.40
2022-09-24T11:33:26.319Z,15.30
2022-09-24T11:35:59.520Z,15.20
2022-09-24T11:38:27.226Z,15.30
2022-09-24T11:41:14.217Z,15.30
2022-09-24T11:44:00.934Z,15.20
2022-09-24T11:46:47.192Z,15.30
2022-09-24T11:49:24.943Z,15.30
2022-09-24T11:52:08.197Z,15.20
2022-09-24T11:54:37.701Z,15.10
2022-09-24T11:57:10.641Z,15.10
2022-09-24T11:59:56.254Z,15.00
2022-09-24T12:02:35.014Z,15.00
2022-09-24T12:05:20.682Z,15.00
2022-09-24T12:08:12.546Z,15.00
2022-09-24T12:10:53.810Z,15.00
2022-09-24T12:13:33.703Z,15.00
2022-09-24T12:16:07.401Z,15.00
2022-09-24T12:18:50.617Z,15.00
2022-09-24T12:21:20.843Z,15.00
2022-09-24T12:23:49.395Z,15.10
2022-09-24T12:26:17.695Z,15.10
2022-09-24T12:29:22.260Z,15.20
2022-09-24T12:32:22.387Z,15.30
2022-09-24T12:34:50.856Z,15.30
2022-09-24T12:37:20.374Z,15.40
2022-09-24T12:39:53.995Z,15.60
2022-09-24T12:42:21.608Z,15.90
2022-09-24T12:44:54.027Z,16.00
2022-09-24T12:47:23.213Z,16.20
2022-09-24T12:49:52.395Z,16.20
2022-09-24T12:52:24.063Z,16.00
2022-09-24T12:54:55.583Z,16.00
2022-09-24T12:57:25.860Z,16.00
2022-09-24T12:59:57.472Z,16.20
2022-09-24T13:02:28.648Z,16.30
2022-09-24T13:05:01.630Z,16.40
2022-09-24T13:07:39.741Z,16.50
2022-09-24T13:10:21.867Z,16.60
2022-09-24T13:12:49.218Z,16.50
2022-09-24T13:15:38.729Z,16.60
2022-09-24T13:18:11.413Z,16.40
2022-09-24T13:20:40.531Z,16.20
2022-09-24T13:23:19.837Z,16.20
2022-09-24T13:25:56.263Z,16.20
2022-09-24T13:28:22.996Z,16.30
2022-09-24T13:30:52.062Z,16.10
2022-09-24T13:33:27.987Z,16.00
2022-09-24T13:35:54.672Z,15.90
2022-09-24T13:38:24.052Z,15.80
2022-09-24T13:41:01.802Z,15.70
2022-09-24T13:43:38.724Z,15.70
2022-09-24T13:46:07.334Z,15.60
2022-09-24T13:48:36.629Z,15.50
2022-09-24T13:51:04.527Z,15.40
2022-09-24T13:53:40.587Z,15.40
2022-09-24T13:56:12.351Z,15.40
2022-09-24T13:58:39.552Z,15.30
2022-09-24T14:01:27.732Z,15.20
2022-09-24T14:03:55.993Z,15.20
2022-09-24T14:06:39.952Z,15.20
2022-09-24T14:09:36.062Z,15.20
2022-09-24T14:12:13.795Z,15.20
2022-09-24T14:14:43.520Z,15.10
2022-09-24T14:17:13.202Z,15.10
2022-09-24T14:19:40.081Z,15.00
2022-09-24T14:22:11.347Z,15.00
2022-09-24T14:24:43.842Z,14.90
2022-09-24T14:27:13.571Z,15.00
2022-09-24T14:29:48.158Z,15.00
2022-09-24T14:32:21.488Z,15.00
2022-09-24T14:34:51.155Z,15.10
2022-09-24T14:37:20.078Z,15.10
2022-09-24T14:39:48.246Z,15.00
2022-09-24T14:42:23.573Z,15.00
2022-09-24T14:44:51.255Z,15.00
2022-09-24T14:47:29.085Z,15.00
2022-09-24T14:49:56.242Z,14.90
2022-09-24T14:52:33.434Z,14.90
2022-09-24T14:55:15.226Z,14.90
2022-09-24T14:57:47.563Z,14.80
2022-09-24T15:00:19.539Z,14.70
2022-09-24T15:02:50.996Z,14.60
2022-09-24T15:05:22.614Z,14.50
2022-09-24T15:07:49.754Z,14.50
2022-09-24T15:10:24.786Z,14.40
2022-09-24T15:12:52.337Z,14.40
2022-09-24T15:15:20.862Z,14.40
2022-09-24T15:17:47.842Z,14.30
2022-09-24T15:20:14.709Z,14.30
2022-09-24T15:22:41.426Z,14.30
2022-09-24T15:25:08.458Z,14.30
2022-09-24T15:27:38.999Z,14.30
2022-09-24T15:30:07.719Z,14.30
2022-09-24T15:32:38.154Z,14.30
2022-09-24T15:35:09.695Z,14.20
2022-09-24T15:37:39.790Z,14.20
2022-09-24T15:40:24.799Z,14.30
2022-09-24T15:42:51.973Z,14.20
2022-09-24T15:45:21.228Z,14.20
2022-09-24T15:47:48.692Z,14.20
2022-09-24T15:50:15.621Z,14.20
2022-09-24T15:52:50.355Z,14.20
2022-09-24T15:55:18.582Z,14.20
2022-09-24T15:57:46.782Z,14.10
2022-09-24T16:00:14.897Z,14.10
2022-09-24T16:02:43.643Z,14.10
2022-09-24T16:05:14.768Z,14.10
2022-09-24T16:07:41.919Z,14.10
2022-09-24T16:10:09.574Z,14.10
2022-09-24T16:12:36.537Z,14.00
2022-09-24T16:15:03.685Z,14.00
2022-09-24T16:17:30.529Z,13.90
2022-09-24T16:19:57.247Z,13.90
2022-09-24T16:22:24.070Z,13.80
2022-09-24T16:24:50.794Z,13.80
2022-09-24T16:27:17.579Z,13.70
2022-09-24T16:29:44.329Z,13.60
2022-09-24T16:32:11.368Z,13.50
2022-09-24T16:34:38.113Z,13.40
2022-09-24T16:37:04.919Z,13.40
2022-09-24T16:39:31.674Z,13.30
2022-09-24T16:41:58.538Z,13.20
2022-09-24T16:44:25.426Z,13.10
2022-09-24T16:46:52.256Z,13.00
2022-09-24T16:49:19.623Z,12.90
2022-09-24T16:51:46.379Z,12.80
2022-09-24T16:54:13.745Z,12.70
2022-09-24T16:56:40.566Z,12.60
2022-09-24T16:59:07.274Z,12.50
2022-09-24T17:01:34.094Z,12.50
2022-09-24T17:04:01.007Z,12.40
2022-09-24T17:06:29.114Z,12.30
2022-09-24T17:09:14.644Z,12.20
2022-09-24T17:11:42.081Z,12.20
2022-09-24T17:14:12.234Z,12.10
2022-09-24T17:16:39.735Z,12.10
2022-09-24T17:19:08.070Z,12.00
2022-09-24T17:21:35.674Z,11.90
2022-09-24T17:24:02.671Z,11.90
2022-09-24T17:26:29.409Z,11.80
2022-09-24T17:28:56.214Z,11.70
2022-09-24T17:31:24.120Z,11.70
2022-09-24T17:34:01.401Z,11.60
2022-09-24T17:36:29.048Z,11.50
2022-09-24T17:38:56.975Z,11.50
2022-09-24T17:41:23.796Z,11.50
2022-09-24T17:43:51.399Z,11.40
2022-09-24T17:46:22.606Z,11.40
2022-09-24T17:48:51.336Z,11.30
2022-09-24T17:51:19.925Z,11.20
2022-09-24T17:53:46.938Z,11.10
2022-09-24T17:56:14.491Z,11.10
2022-09-24T17:58:42.431Z,11.00
2022-09-24T18:01:11.172Z,11.00
2022-09-24T18:03:38.098Z,11.00
2022-09-24T18:06:09.012Z,10.90
2022-09-24T18:08:36.479Z,10.90
2022-09-24T18:11:13.701Z,10.80
2022-09-24T18:13:40.780Z,10.80
2022-09-24T18:16:09.050Z,10.80
2022-09-24T18:18:36.319Z,10.80
2022-09-24T18:21:04.060Z,10.70
2022-09-24T18:23:31.138Z,10.70
2022-09-24T18:26:17.264Z,10.70
2022-09-24T18:28:51.088Z,10.70
2022-09-24T18:31:19.147Z,10.70
2022-09-24T18:33:47.098Z,10.70
2022-09-24T18:36:14.677Z,10.60
2022-09-24T18:38:41.491Z,10.60
2022-09-24T18:41:09.597Z,10.60
2022-09-24T18:43:36.552Z,10.60
2022-09-24T18:46:07.766Z,10.60
2022-09-24T18:48:35.346Z,10.60
2022-09-24T18:51:02.114Z,10.60
2022-09-24T18:53:31.435Z,10.50
2022-09-24T18:55:58.945Z,10.50
2022-09-24T18:58:25.784Z,10.40
2022-09-24T19:00:57.218Z,10.50
2022-09-24T19:03:25.251Z,10.40
2022-09-24T19:05:52.616Z,10.40
2022-09-24T19:08:20.301Z,10.40
2022-09-24T19:10:47.751Z,10.40
2022-09-24T19:13:15.007Z,10.40
2022-09-24T19:15:42.314Z,10.40
2022-09-24T19:18:10.404Z,10.40
2022-09-24T19:20:37.723Z,10.30
2022-09-24T19:23:04.642Z,10.30
2022-09-24T19:25:32.472Z,10.30
2022-09-24T19:27:59.712Z,10.30
2022-09-24T19:30:27.558Z,10.30
2022-09-24T19:32:54.347Z,10.30
2022-09-24T19:35:21.087Z,10.30
2022-09-24T19:37:47.935Z,10.30
2022-09-24T19:40:14.839Z,10.30
2022-09-24T19:42:42.335Z,10.30
2022-09-24T19:45:09.327Z,10.30
2022-09-24T19:47:36.103Z,10.30
2022-09-24T19:50:03.064Z,10.30
2022-09-24T19:52:31.369Z,10.30
2022-09-24T19:54:58.062Z,10.30
2022-09-24T19:57:25.146Z,10.30
2022-09-24T19:59:51.915Z,10.30
2022-09-24T20:02:18.733Z,10.30
2022-09-24T20:04:45.557Z,10.30
2022-09-24T20:07:12.565Z,10.30
2022-09-24T20:09:40.131Z,10.30
2022-09-24T20:12:06.866Z,10.30
2022-09-24T20:14:33.938Z,10.30
2022-09-24T20:17:00.723Z,10.30
2022-09-24T20:19:27.453Z,10.30
2022-09-24T20:21:57.403Z,10.20
2022-09-24T20:24:24.212Z,10.20
2022-09-24T20:27:09.316Z,10.20
2022-09-24T20:29:37.504Z,10.20
2022-09-24T20:32:04.371Z,10.20
2022-09-24T20:34:33.788Z,10.20
2022-09-24T20:37:01.676Z,10.20
2022-09-24T20:39:29.187Z,10.20
2022-09-24T20:41:56.126Z,10.10
2022-09-24T20:44:24.914Z,10.10
2022-09-24T20:46:51.886Z,10.10
2022-09-24T20:49:23.310Z,10.10
2022-09-24T20:51:55.575Z,10.00
2022-09-24T20:54:24.010Z,10.00
2022-09-24T20:56:50.893Z,10.10
2022-09-24T20:59:17.713Z,10.00
2022-09-24T21:01:44.731Z,10.00
2022-09-24T21:04:11.957Z,10.00
2022-09-24T21:06:38.742Z,10.00
2022-09-24T21:09:05.570Z,10.00
2022-09-24T21:11:33.253Z,10.00
2022-09-24T21:14:03.098Z,10.00
2022-09-24T21:16:32.004Z,9.90
2022-09-24T21:19:00.497Z,10.00
2022-09-24T21:21:29.127Z,9.90
2022-09-24T21:23:57.635Z,9.90
2022-09-24T21:26:25.779Z,9.90
2022-09-24T21:28:53.823Z,9.90
2022-09-24T21:31:21.800Z,9.90
2022-09-24T21:33:49.414Z,9.80
2022-09-24T21:36:19.424Z,9.80
2022-09-24T21:38:55.982Z,9.80
2022-09-24T21:41:23.729Z,9.80
2022-09-24T21:43:50.696Z,9.80
2022-09-24T21:46:17.596Z,9.80
2022-09-24T21:48:44.449Z,9.70
2022-09-24T21:51:22.330Z,9.70
2022-09-24T21:53:53.074Z,9.70
2022-09-24T21:56:20.684Z,9.70
2022-09-24T21:58:48.507Z,9.70
2022-09-24T22:01:19.564Z,9.70
2022-09-24T22:03:46.766Z,9.70
2022-09-24T22:06:16.318Z,9.60
2022-09-24T22:08:45.015Z,9.60
2022-09-24T22:11:12.121Z,9.60
2022-09-24T22:13:39.469Z,9.60
2022-09-24T22:16:07.331Z,9.60
2022-09-24T22:18:34.129Z,9.60
2022-09-24T22:21:05.381Z,9.60
2022-09-24T22:23:32.121Z,9.50
2022-09-24T22:28:54.667Z,9.60
2022-09-24T22:35:43.495Z,9.50
2022-09-24T22:38:10.440Z,9.50
2022-09-24T22:40:37.365Z,9.50
2022-09-24T22:43:04.289Z,9.50
2022-09-24T22:45:31.033Z,9.50
2022-09-24T22:47:58.769Z,9.40
2022-09-24T22:50:26.166Z,9.40
2022-09-24T22:52:53.216Z,9.40
2022-09-24T22:55:20.027Z,9.40
2022-09-24T22:57:47.127Z,9.40
2022-09-24T23:00:19.276Z,9.40
2022-09-24T23:02:46.353Z,9.40
2022-09-24T23:05:14.001Z,9.40
2022-09-24T23:07:40.875Z,9.30
2022-09-24T23:10:08.027Z,9.30
2022-09-24T23:12:35.338Z,9.40
2022-09-24T23:15:02.134Z,9.30
2022-09-24T23:17:28.950Z,9.30
2022-09-24T23:19:55.714Z,9.30
2022-09-24T23:22:22.667Z,9.30
2022-09-24T23:24:50.758Z,9.30
2022-09-24T23:27:18.932Z,9.30
2022-09-24T23:29:49.122Z,9.30
2022-09-24T23:32:15.960Z,9.30
2022-09-24T23:34:42.828Z,9.20
2022-09-24T23:37:10.842Z,9.20
2022-09-24T23:39:40.564Z,9.20
2022-09-24T23:42:07.553Z,9.20
2022-09-24T23:44:34.688Z,9.20
2022-09-24T23:47:01.750Z,9.20
2022-09-24T23:49:28.625Z,9.20
2022-09-24T23:51:55.499Z,9.20
2022-09-24T23:57:10.381Z,9.20
2022-09-24T23:59:37.351Z,9.10
